createdAt,value
2019-03-17T00:00:02.768Z,4.00
2019-03-17T00:02:41.661Z,3.90
2019-03-17T00:05:14.396Z,3.03
2019-03-17T00:07:47.133Z,3.90
2019-03-17T00:10:19.945Z,4.13
2019-03-17T00:12:52.285Z,3.43
2019-03-17T00:15:26.526Z,3.43
2019-03-17T00:17:59.647Z,3.20
2019-03-17T00:20:30.617Z,4.27
2019-03-17T00:23:07.761Z,4.73
2019-03-17T00:25:43.359Z,4.00
2019-03-17T00:28:20.921Z,5.43
2019-03-17T00:30:54.670Z,3.73
2019-03-17T00:33:25.887Z,3.03
2019-03-17T00:36:01.842Z,3.10
2019-03-17T00:38:38.599Z,2.90
2019-03-17T00:41:11.170Z,2.90
2019-03-17T00:43:44.729Z,2.80
2019-03-17T00:46:16.862Z,2.77
2019-03-17T00:48:50.286Z,6.17
2019-03-17T00:51:22.562Z,3.40
2019-03-17T00:53:55.517Z,4.73
2019-03-17T00:56:42.354Z,3.00
2019-03-17T00:59:19.296Z,3.10
2019-03-17T01:02:15.270Z,4.07
2019-03-17T01:04:35.938Z,3.67
2019-03-17T01:07:12.092Z,2.70
2019-03-17T01:09:45.994Z,3.23
2019-03-17T01:12:20.425Z,4.40
2019-03-17T01:14:59.338Z,4.77
2019-03-17T01:17:32.793Z,3.50
2019-03-17T01:20:13.689Z,4.17
2019-03-17T01:22:52.363Z,4.00
2019-03-17T01:25:23.558Z,3.10
2019-03-17T01:27:57.007Z,2.53
2019-03-17T01:30:28.132Z,3.23
2019-03-17T01:33:02.458Z,3.80
2019-03-17T01:35:39.999Z,5.60
2019-03-17T01:38:12.483Z,4.37
2019-03-17T01:40:45.048Z,3.73
2019-03-17T01:43:17.699Z,4.40
2019-03-17T01:45:48.879Z,3.00
2019-03-17T01:48:31.155Z,3.20
2019-03-17T01:51:04.748Z,3.47
2019-03-17T01:53:35.892Z,3.37
2019-03-17T01:56:08.492Z,3.77
2019-03-17T01:58:44.264Z,3.10
2019-03-17T02:01:17.569Z,3.00
2019-03-17T02:03:50.522Z,4.33
2019-03-17T02:06:24.664Z,3.40
2019-03-17T02:09:03.491Z,2.90
2019-03-17T02:11:39.707Z,3.20
2019-03-17T02:14:19.171Z,3.10
2019-03-17T02:17:11.285Z,3.37
2019-03-17T02:19:43.180Z,2.60
2019-03-17T02:22:15.720Z,2.43
2019-03-17T02:24:46.581Z,2.40
2019-03-17T02:27:26.637Z,3.17
2019-03-17T02:29:57.457Z,2.60
2019-03-17T02:32:35.927Z,2.20
2019-03-17T02:35:11.107Z,2.70
2019-03-17T02:37:47.896Z,2.57
2019-03-17T02:40:24.690Z,2.10
2019-03-17T02:42:58.409Z,2.37
2019-03-17T02:45:29.496Z,3.13
2019-03-17T02:48:03.499Z,2.10
2019-03-17T02:50:37.146Z,2.07
2019-03-17T02:53:08.181Z,2.13
2019-03-17T02:55:42.739Z,2.83
2019-03-17T02:58:13.418Z,2.77
2019-03-17T03:00:47.634Z,2.00
2019-03-17T03:03:21.565Z,1.97
2019-03-17T03:05:55.815Z,1.90
2019-03-17T03:08:31.841Z,1.87
2019-03-17T03:11:07.807Z,2.17
2019-03-17T03:13:42.040Z,1.77
2019-03-17T03:16:16.167Z,2.53
2019-03-17T03:18:47.926Z,1.90
2019-03-17T03:21:24.017Z,1.87
2019-03-17T03:23:59.696Z,2.10
2019-03-17T03:26:35.699Z,2.20
2019-03-17T03:29:10.484Z,2.17
2019-03-17T03:31:43.756Z,3.03
2019-03-17T03:34:19.205Z,3.93
2019-03-17T03:36:52.633Z,2.10
2019-03-17T03:39:49.993Z,2.93
2019-03-17T03:42:22.723Z,3.37
2019-03-17T03:44:57.691Z,1.93
2019-03-17T03:47:30.909Z,1.80
2019-03-17T03:50:04.517Z,3.50
2019-03-17T03:52:35.473Z,2.00
2019-03-17T03:55:08.185Z,2.70
2019-03-17T03:57:39.414Z,2.23
2019-03-17T04:00:11.240Z,2.47
2019-03-17T04:02:48.422Z,2.47
2019-03-17T04:05:24.480Z,4.43
2019-03-17T04:07:57.710Z,2.20
2019-03-17T04:10:34.561Z,1.90
2019-03-17T04:13:07.801Z,2.27
2019-03-17T04:15:42.055Z,3.07
2019-03-17T04:18:18.154Z,2.13
2019-03-17T04:20:54.631Z,2.57
2019-03-17T04:23:27.117Z,2.53
2019-03-17T04:26:04.438Z,6.57
2019-03-17T04:28:41.955Z,2.10
2019-03-17T04:31:09.734Z,1.90
2019-03-17T04:33:42.503Z,2.10
2019-03-17T04:36:15.237Z,2.20
2019-03-17T04:38:49.212Z,2.13
2019-03-17T04:41:21.187Z,3.23
2019-03-17T04:43:52.406Z,2.53
2019-03-17T04:46:25.365Z,1.80
2019-03-17T04:49:01.015Z,1.93
2019-03-17T04:51:32.585Z,2.07
2019-03-17T04:54:06.685Z,1.90
2019-03-17T04:56:37.528Z,2.10
2019-03-17T04:59:10.433Z,2.87
2019-03-17T05:01:47.142Z,3.27
2019-03-17T05:04:27.017Z,2.00
2019-03-17T05:07:00.538Z,2.03
2019-03-17T05:09:32.829Z,3.50
2019-03-17T05:12:04.979Z,2.13
2019-03-17T05:14:36.020Z,2.17
2019-03-17T05:17:10.112Z,2.07
2019-03-17T05:19:46.089Z,2.50
2019-03-17T05:22:23.150Z,2.17
2019-03-17T05:24:57.987Z,2.03
2019-03-17T05:27:37.943Z,2.10
2019-03-17T05:30:12.210Z,2.00
2019-03-17T05:32:46.376Z,1.73
2019-03-17T05:35:21.502Z,2.40
2019-03-17T05:37:53.363Z,2.73
2019-03-17T05:40:27.282Z,2.97
2019-03-17T05:42:58.245Z,2.87
2019-03-17T05:45:29.279Z,1.80
2019-03-17T05:48:01.922Z,3.17
2019-03-17T05:50:32.768Z,1.90
2019-03-17T05:53:07.231Z,1.90
2019-03-17T05:55:46.426Z,1.90
2019-03-17T05:58:23.300Z,2.70
2019-03-17T06:00:57.038Z,2.10
2019-03-17T06:03:28.665Z,2.27
2019-03-17T06:05:59.573Z,2.17
2019-03-17T06:08:33.506Z,2.03
2019-03-17T06:11:09.491Z,2.20
2019-03-17T06:13:40.404Z,2.37
2019-03-17T06:16:11.313Z,2.03
2019-03-17T06:18:47.279Z,2.70
2019-03-17T06:21:20.053Z,2.17
2019-03-17T06:23:50.947Z,6.03
2019-03-17T06:26:23.023Z,2.00
2019-03-17T06:28:57.128Z,2.20
2019-03-17T06:31:28.002Z,2.17
2019-03-17T06:33:59.929Z,2.43
2019-03-17T06:36:31.278Z,3.13
2019-03-17T06:39:02.394Z,2.10
2019-03-17T06:41:33.290Z,2.17
2019-03-17T06:44:07.377Z,2.30
2019-03-17T06:46:38.296Z,2.40
2019-03-17T06:49:11.304Z,2.77
2019-03-17T06:51:45.641Z,1.83
2019-03-17T06:54:16.635Z,3.43
2019-03-17T06:56:51.822Z,2.23
2019-03-17T06:59:28.170Z,2.27
2019-03-17T07:02:00.632Z,2.50
2019-03-17T07:04:35.337Z,2.67
2019-03-17T07:07:06.395Z,3.37
2019-03-17T07:09:41.895Z,2.13
2019-03-17T07:12:14.297Z,3.60
2019-03-17T07:14:46.695Z,2.30
2019-03-17T07:17:19.342Z,2.63
2019-03-17T07:19:50.375Z,2.27
2019-03-17T07:22:21.723Z,1.80
2019-03-17T07:24:52.687Z,1.80
2019-03-17T07:27:24.128Z,2.00
2019-03-17T07:29:57.368Z,3.00
2019-03-17T07:32:28.470Z,1.77
2019-03-17T07:35:00.609Z,1.77
2019-03-17T07:37:35.220Z,1.90
2019-03-17T07:40:08.860Z,2.00
2019-03-17T07:42:39.812Z,1.90
2019-03-17T07:45:16.267Z,2.03
2019-03-17T07:47:50.684Z,2.43
2019-03-17T07:50:33.369Z,2.43
2019-03-17T07:53:09.564Z,3.07
2019-03-17T07:55:46.000Z,1.97
2019-03-17T07:58:30.283Z,3.90
2019-03-17T08:00:55.701Z,2.07
2019-03-17T08:03:30.015Z,3.10
2019-03-17T08:06:01.784Z,3.07
2019-03-17T08:08:37.416Z,1.70
2019-03-17T08:11:10.111Z,1.93
2019-03-17T08:13:52.468Z,2.03
2019-03-17T08:16:27.086Z,2.77
2019-03-17T08:19:05.860Z,2.13
2019-03-17T08:21:43.390Z,2.53
2019-03-17T08:24:33.037Z,3.63
2019-03-17T08:27:07.842Z,2.40
2019-03-17T08:29:42.039Z,2.33
2019-03-17T08:35:46.659Z,2.27
2019-03-17T08:38:22.899Z,2.87
2019-03-17T08:41:05.101Z,2.30
2019-03-17T08:43:40.103Z,4.53
2019-03-17T08:46:15.425Z,3.47
2019-03-17T08:48:53.535Z,2.10
2019-03-17T08:51:34.837Z,2.20
2019-03-17T08:54:14.234Z,1.90
2019-03-17T08:57:29.021Z,3.23
2019-03-17T09:00:23.858Z,4.23
2019-03-17T09:03:17.730Z,4.17
2019-03-17T09:05:50.198Z,2.53
2019-03-17T09:08:35.246Z,2.43
2019-03-17T09:11:15.335Z,3.00
2019-03-17T09:13:50.062Z,4.17
2019-03-17T09:16:24.454Z,2.93
2019-03-17T09:18:56.975Z,5.60
2019-03-17T09:21:29.157Z,3.53
2019-03-17T09:24:01.574Z,5.57
2019-03-17T09:26:36.196Z,4.57
2019-03-17T09:29:16.851Z,3.60
2019-03-17T09:31:51.172Z,4.67
2019-03-17T09:34:32.438Z,4.20
2019-03-17T09:37:12.612Z,2.67
2019-03-17T09:39:48.040Z,3.80
2019-03-17T09:42:24.995Z,5.87
2019-03-17T09:45:24.341Z,5.37
2019-03-17T09:47:50.040Z,5.77
2019-03-17T09:50:25.399Z,8.03
2019-03-17T09:53:04.839Z,6.17
2019-03-17T09:55:55.948Z,4.13
2019-03-17T09:58:31.294Z,6.77
2019-03-17T10:01:11.162Z,4.73
2019-03-17T10:03:49.483Z,4.70
2019-03-17T10:06:25.050Z,7.90
2019-03-17T10:09:01.448Z,5.30
2019-03-17T10:11:42.841Z,3.13
2019-03-17T10:14:27.498Z,8.10
2019-03-17T10:17:10.824Z,5.87
2019-03-17T10:19:59.037Z,9.53
2019-03-17T10:22:39.864Z,4.87
2019-03-17T10:25:23.272Z,5.03
2019-03-17T10:28:01.831Z,8.77
2019-03-17T10:30:56.279Z,9.03
2019-03-17T10:33:36.356Z,6.60
2019-03-17T10:39:12.617Z,7.70
2019-03-17T10:41:49.004Z,7.23
2019-03-17T10:44:22.433Z,6.13
2019-03-17T10:46:59.196Z,6.73
2019-03-17T10:49:30.151Z,8.67
2019-03-17T10:52:01.113Z,5.63
2019-03-17T10:55:55.016Z,10.53
2019-03-17T10:57:35.151Z,9.50
2019-03-17T11:00:15.405Z,8.63
2019-03-17T11:02:56.207Z,8.70
2019-03-17T11:05:33.209Z,7.40
2019-03-17T11:08:17.733Z,6.13
2019-03-17T11:10:48.108Z,5.77
2019-03-17T11:13:27.611Z,11.10
2019-03-17T11:16:00.894Z,7.33
2019-03-17T11:18:41.594Z,6.00
2019-03-17T11:21:15.131Z,9.67
2019-03-17T11:23:53.833Z,8.07
2019-03-17T11:26:47.336Z,7.60
2019-03-17T11:29:32.815Z,5.07
2019-03-17T11:32:27.189Z,6.47
2019-03-17T11:35:08.397Z,12.73
2019-03-17T11:37:41.919Z,4.47
2019-03-17T11:40:21.224Z,10.20
2019-03-17T11:42:56.594Z,7.67
2019-03-17T11:45:32.737Z,6.93
2019-03-17T11:48:14.023Z,6.37
2019-03-17T11:50:46.993Z,6.37
2019-03-17T11:53:19.567Z,6.90
2019-03-17T11:55:52.048Z,3.93
2019-03-17T11:58:25.146Z,7.10
2019-03-17T12:01:01.497Z,3.60
2019-03-17T12:03:32.527Z,6.27
2019-03-17T12:09:14.463Z,5.90
2019-03-17T12:11:48.649Z,3.17
2019-03-17T12:14:48.619Z,6.17
2019-03-17T12:17:23.007Z,3.80
2019-03-17T12:20:00.668Z,2.57
2019-03-17T12:22:42.251Z,4.30
2019-03-17T12:25:20.706Z,4.53
2019-03-17T12:28:02.644Z,4.20
2019-03-17T12:30:41.519Z,3.33
2019-03-17T12:33:20.981Z,3.97
2019-03-17T12:36:05.348Z,6.17
2019-03-17T12:38:46.069Z,2.73
2019-03-17T12:41:24.096Z,7.40
2019-03-17T12:44:09.906Z,4.10
2019-03-17T12:46:46.724Z,2.60
2019-03-17T12:49:27.685Z,2.13
2019-03-17T12:52:32.180Z,1.77
2019-03-17T12:55:43.399Z,1.57
2019-03-17T12:58:22.218Z,4.23
2019-03-17T13:00:58.065Z,1.27
2019-03-17T13:03:29.289Z,1.57
2019-03-17T13:06:04.843Z,1.30
2019-03-17T13:08:39.653Z,3.50
2019-03-17T13:11:15.855Z,3.10
2019-03-17T13:13:49.702Z,1.30
2019-03-17T13:16:24.497Z,1.20
2019-03-17T13:19:05.023Z,1.20
2019-03-17T13:21:36.100Z,1.40
2019-03-17T13:26:43.118Z,1.50
2019-03-17T13:27:23.416Z,1.77
2019-03-17T13:29:58.646Z,1.30
2019-03-17T13:32:33.564Z,1.40
2019-03-17T13:35:05.945Z,1.27
2019-03-17T13:37:41.328Z,1.10
2019-03-17T13:40:28.172Z,1.10
2019-03-17T13:42:53.098Z,0.87
2019-03-17T13:45:34.409Z,1.00
2019-03-17T13:48:20.262Z,1.47
2019-03-17T13:50:55.919Z,1.63
2019-03-17T13:53:30.216Z,1.50
2019-03-17T13:56:32.458Z,1.20
2019-03-17T13:59:31.887Z,1.30
2019-03-17T14:02:03.336Z,1.73
2019-03-17T14:04:41.321Z,1.43
2019-03-17T14:07:12.613Z,1.00
2019-03-17T14:09:54.539Z,0.80
2019-03-17T14:13:00.058Z,0.90
2019-03-17T14:15:33.235Z,1.00
2019-03-17T14:18:13.500Z,1.10
2019-03-17T14:20:44.585Z,1.73
2019-03-17T14:23:21.467Z,1.30
2019-03-17T14:25:59.658Z,1.50
2019-03-17T14:28:42.791Z,2.73
2019-03-17T14:31:14.265Z,1.43
2019-03-17T14:33:54.891Z,1.53
2019-03-17T14:36:28.376Z,4.93
2019-03-17T14:39:03.609Z,2.70
2019-03-17T14:41:35.331Z,1.50
2019-03-17T14:44:12.399Z,1.63
2019-03-17T14:46:48.917Z,1.60
2019-03-17T14:49:20.023Z,4.13
2019-03-17T14:52:19.631Z,2.13
2019-03-17T14:55:03.422Z,3.20
2019-03-17T14:57:37.422Z,1.60
2019-03-17T15:00:14.671Z,3.30
2019-03-17T15:02:50.119Z,2.23
2019-03-17T15:05:25.153Z,2.07
2019-03-17T15:07:54.404Z,2.43
2019-03-17T15:10:31.459Z,1.50
2019-03-17T15:13:33.394Z,1.67
2019-03-17T15:16:02.725Z,1.87
2019-03-17T15:19:36.048Z,1.30
2019-03-17T15:22:21.064Z,2.50
2019-03-17T15:25:07.550Z,5.73
2019-03-17T15:27:43.150Z,3.40
2019-03-17T15:30:22.827Z,3.83
2019-03-17T15:32:57.392Z,2.43
2019-03-17T15:35:30.327Z,3.73
2019-03-17T15:38:01.232Z,4.07
2019-03-17T15:40:36.457Z,1.70
2019-03-17T15:43:16.820Z,2.40
2019-03-17T15:45:55.648Z,1.70
2019-03-17T15:48:25.554Z,1.80
2019-03-17T15:50:58.544Z,1.60
2019-03-17T15:53:59.106Z,3.57
2019-03-17T15:56:41.934Z,3.07
2019-03-17T15:59:27.757Z,1.50
2019-03-17T16:02:32.072Z,1.70
2019-03-17T16:08:41.414Z,5.63
2019-03-17T16:11:12.490Z,1.40
2019-03-17T16:14:01.708Z,1.60
2019-03-17T16:19:53.958Z,1.77
2019-03-17T16:25:46.244Z,3.43
2019-03-17T16:29:05.214Z,1.87
2019-03-17T16:32:50.348Z,1.40
2019-03-17T16:35:23.906Z,1.80
2019-03-17T16:45:49.668Z,2.00
2019-03-17T16:48:36.995Z,5.40
2019-03-17T16:51:35.814Z,3.17
2019-03-17T16:59:36.347Z,1.80
2019-03-17T17:00:37.676Z,1.97
2019-03-17T17:03:30.449Z,1.77
2019-03-17T17:06:48.335Z,2.20
2019-03-17T17:13:21.279Z,3.53
2019-03-17T17:16:58.649Z,2.00
2019-03-17T17:20:09.729Z,1.83
2019-03-17T17:30:32.476Z,2.63
2019-03-17T17:34:02.733Z,2.20
2019-03-17T17:37:18.736Z,1.87
2019-03-17T17:40:20.498Z,2.53
2019-03-17T17:43:03.167Z,3.57
2019-03-17T17:45:34.864Z,4.30
2019-03-17T17:52:52.704Z,3.33
2019-03-17T18:03:51.851Z,14.40
2019-03-17T18:07:14.729Z,8.83
2019-03-17T18:17:21.936Z,5.50
2019-03-17T18:24:30.270Z,9.77
2019-03-17T18:35:56.020Z,15.43
2019-03-17T18:39:22.673Z,17.53
2019-03-17T18:42:35.000Z,14.17
2019-03-17T18:45:20.335Z,12.37
2019-03-17T18:48:00.609Z,10.53
2019-03-17T18:51:06.829Z,8.67
2019-03-17T18:53:44.845Z,9.70
2019-03-17T18:56:16.129Z,8.87
2019-03-17T18:59:06.776Z,9.07
2019-03-17T19:01:50.599Z,4.33
2019-03-17T19:04:26.373Z,17.57
2019-03-17T19:07:07.815Z,17.23
2019-03-17T19:09:44.195Z,6.67
2019-03-17T19:12:20.443Z,8.63
2019-03-17T19:15:04.515Z,4.73
2019-03-17T19:18:00.355Z,3.90
2019-03-17T19:20:48.696Z,4.87
2019-03-17T19:23:27.925Z,4.23
2019-03-17T19:26:08.696Z,3.53
2019-03-17T19:28:39.935Z,4.67
2019-03-17T19:31:14.867Z,5.87
2019-03-17T19:33:55.234Z,3.43
2019-03-17T19:36:35.261Z,5.83
2019-03-17T19:39:13.583Z,3.20
2019-03-17T19:41:48.307Z,4.50
2019-03-17T19:44:28.376Z,2.93
2019-03-17T19:46:59.729Z,2.60
2019-03-17T19:49:34.869Z,3.13
2019-03-17T19:52:13.282Z,2.67
2019-03-17T19:54:45.726Z,2.90
2019-03-17T19:57:16.748Z,3.30
2019-03-17T20:00:03.500Z,3.20
2019-03-17T20:03:43.755Z,3.40
2019-03-17T20:07:52.782Z,4.23
2019-03-17T20:09:42.981Z,3.00
2019-03-17T20:14:05.023Z,4.63
2019-03-17T20:17:10.896Z,4.20
2019-03-17T20:22:01.153Z,4.00
2019-03-17T20:29:14.266Z,6.60
2019-03-17T20:31:37.476Z,3.73
2019-03-17T20:34:35.653Z,4.00
2019-03-17T20:37:09.242Z,3.43
2019-03-17T20:39:39.742Z,3.37
2019-03-17T20:42:22.312Z,5.23
2019-03-17T20:44:57.729Z,3.20
2019-03-17T20:47:31.536Z,3.67
2019-03-17T20:53:10.396Z,2.80
2019-03-17T20:56:10.845Z,2.77
2019-03-17T21:00:01.495Z,3.83
2019-03-17T21:02:49.985Z,4.27
2019-03-17T21:05:40.364Z,4.70
2019-03-17T21:08:14.501Z,2.77
2019-03-17T21:11:00.122Z,2.50
2019-03-17T21:14:20.795Z,2.80
2019-03-17T21:17:17.117Z,2.77
2019-03-17T21:20:09.084Z,2.60
2019-03-17T21:22:59.028Z,5.70
2019-03-17T21:25:54.152Z,2.90
2019-03-17T21:28:54.773Z,2.40
2019-03-17T21:31:45.443Z,4.47
2019-03-17T21:35:18.437Z,2.23
2019-03-17T21:42:05.741Z,2.30
2019-03-17T21:45:27.750Z,1.90
2019-03-17T21:49:07.070Z,2.73
2019-03-17T21:55:17.407Z,2.93
2019-03-17T21:58:27.154Z,2.87
2019-03-17T22:05:00.456Z,2.33
2019-03-17T22:08:40.936Z,6.13
2019-03-17T22:11:42.712Z,2.80
2019-03-17T22:17:56.062Z,3.17
2019-03-17T22:20:51.551Z,5.10
2019-03-17T22:23:29.219Z,3.30
2019-03-17T22:26:17.524Z,3.37
2019-03-17T22:28:57.440Z,3.07
2019-03-17T22:31:36.672Z,2.73
2019-03-17T22:34:15.514Z,5.87
2019-03-17T22:36:52.573Z,3.87
2019-03-17T22:39:30.141Z,6.20
2019-03-17T22:45:38.240Z,2.10
2019-03-17T22:51:35.560Z,5.73
2019-03-17T22:54:17.923Z,4.17
2019-03-17T22:57:32.835Z,2.30
2019-03-17T23:00:43.042Z,2.90
2019-03-17T23:03:56.125Z,2.80
2019-03-17T23:07:45.589Z,2.93
2019-03-17T23:09:47.306Z,3.23
2019-03-17T23:12:28.119Z,4.17
2019-03-17T23:15:14.747Z,3.47
2019-03-17T23:17:47.896Z,4.73
2019-03-17T23:20:29.634Z,3.90
2019-03-17T23:23:01.972Z,3.80
2019-03-17T23:25:53.197Z,5.50
2019-03-17T23:28:24.525Z,3.07
2019-03-17T23:30:55.571Z,3.10
2019-03-17T23:33:27.934Z,3.60
2019-03-17T23:36:01.773Z,5.00
2019-03-17T23:38:51.924Z,3.77
2019-03-17T23:41:27.291Z,3.20
2019-03-17T23:48:11.373Z,6.23
2019-03-17T23:50:53.761Z,4.40
2019-03-17T23:53:37.291Z,3.30
2019-03-17T23:56:23.298Z,3.73
2019-03-17T23:59:08.049Z,4.90
